Time;durP1;ratioP1;P1;durP2;ratioP2;P2;SDS_P1;SDS_P2;PMS_P1;PMS_P2;Temp;Humidity;BMP_temperature;BMP_pressure;BME280_temperature;BME280_humidity;BME280_pressure;Samples;Min_cycle;Max_cycle;Signal;HPM_P1;HPM_P2
2023/10/19 00:00:21;;;;;;;10.47;5.90;;;9.70;99.90;;;;;;5010230;28;20235;-65
2023/10/19 00:02:52;;;;;;;10.77;6.50;;;9.70;99.90;;;;;;5010019;28;20192;-65
2023/10/19 00:05:18;;;;;;;10.13;6.13;;;9.70;99.90;;;;;;5014097;28;20204;-66
2023/10/19 00:07:44;;;;;;;11.33;5.93;;;9.70;99.90;;;;;;5022146;28;20290;-65
2023/10/19 00:10:10;;;;;;;10.63;6.00;;;9.70;99.90;;;;;;5014054;28;20624;-67
2023/10/19 00:12:36;;;;;;;9.53;5.93;;;9.70;99.90;;;;;;5013810;28;20188;-65
2023/10/19 00:15:04;;;;;;;10.60;6.37;;;9.70;99.90;;;;;;5013356;28;20724;-66
2023/10/19 00:17:32;;;;;;;11.63;6.27;;;9.80;99.90;;;;;;5012622;28;20189;-65
2023/10/19 00:19:59;;;;;;;12.30;6.43;;;9.80;99.90;;;;;;5013597;28;20642;-65
2023/10/19 00:22:25;;;;;;;10.10;5.87;;;9.80;99.90;;;;;;5013811;28;20199;-66
2023/10/19 00:24:51;;;;;;;9.67;5.77;;;9.80;99.90;;;;;;5013267;28;20669;-66
2023/10/19 00:27:18;;;;;;;10.90;6.10;;;9.80;99.90;;;;;;5013592;28;20195;-66
2023/10/19 00:29:55;;;;;;;10.90;6.37;;;9.80;99.90;;;;;;5013478;28;20191;-66
2023/10/19 00:32:24;;;;;;;12.30;6.43;;;9.80;99.90;;;;;;5013631;28;20180;-66
2023/10/19 00:34:51;;;;;;;9.60;5.80;;;9.80;99.90;;;;;;5013055;28;20207;-65
2023/10/19 00:37:20;;;;;;;15.40;6.07;;;9.80;99.90;;;;;;5013593;28;20181;-66
2023/10/19 00:39:55;;;;;;;10.77;6.57;;;9.90;99.90;;;;;;5013204;28;20532;-66
2023/10/19 00:42:25;;;;;;;14.23;6.10;;;9.90;99.90;;;;;;5013517;28;20675;-67
2023/10/19 00:44:51;;;;;;;10.97;6.00;;;9.90;99.90;;;;;;5013288;28;20208;-67
2023/10/19 00:47:23;;;;;;;10.47;5.50;;;9.80;99.90;;;;;;5013211;28;20621;-67
2023/10/19 00:49:49;;;;;;;9.70;5.73;;;9.90;99.90;;;;;;5013693;28;20562;-67
2023/10/19 00:52:23;;;;;;;9.47;6.17;;;9.90;99.90;;;;;;5013124;28;20187;-67
2023/10/19 00:57:32;;;;;;;8.97;5.53;;;9.90;99.90;;;;;;5013097;28;20192;-67
2023/10/19 01:00:11;;;;;;;8.47;5.20;;;9.90;99.90;;;;;;5013034;28;20279;-66
2023/10/19 01:02:46;;;;;;;12.90;5.83;;;9.90;99.90;;;;;;5020717;28;20681;-66
2023/10/19 01:05:14;;;;;;;10.30;6.00;;;9.90;99.90;;;;;;5005339;28;20196;-66
2023/10/19 01:07:40;;;;;;;10.43;5.80;;;9.90;99.90;;;;;;5012663;28;20212;-66
2023/10/19 01:10:12;;;;;;;8.60;5.13;;;9.90;99.90;;;;;;5004808;28;20185;-67
2023/10/19 01:12:41;;;;;;;11.00;5.87;;;9.90;99.90;;;;;;5012688;28;20271;-68
2023/10/19 01:15:29;;;;;;;11.57;5.43;;;9.90;99.90;;;;;;5011380;28;20578;-66
2023/10/19 01:17:59;;;;;;;9.03;5.20;;;9.90;99.90;;;;;;5012572;28;20737;-66
2023/10/19 01:31:06;;;;;;;7.00;4.27;;;10.00;99.90;;;;;;5004472;28;20242;-66
2023/10/19 01:33:34;;;;;;;6.50;4.40;;;10.00;99.90;;;;;;5012072;28;20212;-66
2023/10/19 01:38:44;;;;;;;8.13;4.23;;;10.00;99.90;;;;;;5012576;28;20203;-67
2023/10/19 01:41:18;;;;;;;7.50;4.83;;;10.00;99.90;;;;;;5012335;28;20192;-67
2023/10/19 01:43:46;;;;;;;7.67;4.67;;;10.00;99.90;;;;;;5011807;28;20201;-67
2023/10/19 01:46:13;;;;;;;7.33;4.60;;;10.00;99.90;;;;;;5012111;28;20273;-67
2023/10/19 01:48:43;;;;;;;7.70;4.80;;;10.00;99.90;;;;;;5011969;28;20222;-67
2023/10/19 01:51:16;;;;;;;7.07;4.33;;;10.00;99.90;;;;;;5004279;28;20200;-67
2023/10/19 01:53:46;;;;;;;6.47;4.53;;;10.10;99.90;;;;;;5011850;28;20204;-67
2023/10/19 01:56:12;;;;;;;7.77;4.90;;;10.10;99.90;;;;;;5012145;28;20247;-67
2023/10/19 01:58:39;;;;;;;7.13;4.43;;;10.10;99.90;;;;;;5012007;28;20590;-67
2023/10/19 02:03:41;;;;;;;6.87;4.40;;;10.10;99.90;;;;;;5011555;28;20338;-67
2023/10/19 02:06:17;;;;;;;7.07;4.73;;;10.10;99.90;;;;;;5003871;28;20220;-67
2023/10/19 02:09:21;;;;;;;8.20;4.73;;;10.10;99.90;;;;;;5011738;28;20211;-66
2023/10/19 02:11:47;;;;;;;6.87;4.43;;;10.10;99.90;;;;;;5011640;28;20211;-66
2023/10/19 02:14:14;;;;;;;6.67;4.57;;;10.20;99.90;;;;;;5011221;28;20807;-67
2023/10/19 02:16:50;;;;;;;8.90;4.73;;;10.20;99.90;;;;;;5011618;28;20681;-67
2023/10/19 02:19:16;;;;;;;6.30;4.00;;;10.20;99.90;;;;;;5004887;28;20190;-67
2023/10/19 02:21:42;;;;;;;11.30;4.60;;;10.20;99.90;;;;;;5011436;28;20192;-67
2023/10/19 02:24:09;;;;;;;11.57;4.93;;;10.20;99.90;;;;;;5011056;28;20204;-67
2023/10/19 02:26:37;;;;;;;7.40;4.53;;;10.20;99.90;;;;;;5011254;28;20234;-67
2023/10/19 02:29:07;;;;;;;7.20;4.50;;;10.20;99.90;;;;;;5011337;28;20573;-67
2023/10/19 02:31:33;;;;;;;8.00;4.63;;;10.20;99.90;;;;;;5011226;28;20180;-67
2023/10/19 02:33:59;;;;;;;9.00;5.10;;;10.20;99.90;;;;;;5010874;28;20354;-67
2023/10/19 02:36:29;;;;;;;7.50;4.67;;;10.20;99.90;;;;;;5011163;28;20705;-67
2023/10/19 02:39:00;;;;;;;7.97;4.73;;;10.20;99.90;;;;;;5011049;28;20643;-67
2023/10/19 02:41:29;;;;;;;7.40;4.83;;;10.30;99.90;;;;;;5011146;28;20188;-65
2023/10/19 02:44:02;;;;;;;6.77;4.73;;;10.30;99.90;;;;;;5010586;28;20243;-65
2023/10/19 02:46:34;;;;;;;8.70;5.20;;;10.30;99.90;;;;;;5011631;28;20207;-65
2023/10/19 02:49:04;;;;;;;8.27;4.97;;;10.30;99.90;;;;;;5018991;28;20307;-65
2023/10/19 02:51:30;;;;;;;10.67;4.90;;;10.30;99.90;;;;;;5011181;28;20184;-65
2023/10/19 02:54:00;;;;;;;8.07;5.07;;;10.30;99.90;;;;;;5010489;28;20200;-65
2023/10/19 02:56:26;;;;;;;7.67;4.70;;;10.30;99.90;;;;;;5010974;28;20653;-65
2023/10/19 02:58:52;;;;;;;8.20;5.30;;;10.30;99.90;;;;;;5010786;28;20188;-64
2023/10/19 03:01:21;;;;;;;10.53;5.90;;;10.30;99.90;;;;;;5010846;28;20188;-64
2023/10/19 03:03:51;;;;;;;10.70;4.90;;;10.30;99.90;;;;;;5010541;28;20295;-64
2023/10/19 03:06:21;;;;;;;9.80;5.83;;;10.30;99.90;;;;;;5010948;28;20188;-64
2023/10/19 03:08:52;;;;;;;7.63;4.90;;;10.30;99.90;;;;;;5010734;28;20587;-64
2023/10/19 03:11:17;;;;;;;8.73;5.57;;;10.40;99.90;;;;;;5010806;28;20192;-64
2023/10/19 03:13:43;;;;;;;7.67;5.20;;;10.30;99.90;;;;;;5010052;28;20708;-64
2023/10/19 03:16:09;;;;;;;8.03;5.30;;;10.40;99.90;;;;;;5010606;28;20499;-64
2023/10/19 03:18:35;;;;;;;9.03;5.30;;;10.40;99.90;;;;;;5010699;28;20658;-65
2023/10/19 03:21:04;;;;;;;9.70;5.70;;;10.30;99.90;;;;;;5010596;28;20198;-65
2023/10/19 03:23:34;;;;;;;12.07;6.03;;;10.40;99.90;;;;;;5010158;28;20566;-65
2023/10/19 03:29:14;;;;;;;11.70;5.33;;;10.40;99.90;;;;;;4949569;29;20217;-65
2023/10/19 03:31:47;;;;;;;9.13;5.40;;;10.40;99.90;;;;;;4949899;29;20189;-65
2023/10/19 03:34:13;;;;;;;9.13;5.33;;;10.40;99.90;;;;;;4977428;28;20235;-65
2023/10/19 03:36:39;;;;;;;9.23;5.40;;;10.40;99.90;;;;;;5010437;28;20635;-64
2023/10/19 03:39:12;;;;;;;9.73;5.43;;;10.40;99.90;;;;;;5013809;28;20184;-64
2023/10/19 03:41:41;;;;;;;11.27;5.50;;;10.40;99.90;;;;;;5014558;28;20664;-65
2023/10/19 03:45:12;;;;;;;9.97;5.80;;;10.40;99.90;;;;;;5013843;28;20224;-65
2023/10/19 03:47:11;;;;;;;9.73;5.73;;;10.40;99.90;;;;;;4996147;28;20254;-67
2023/10/19 03:49:38;;;;;;;9.20;5.57;;;10.40;99.90;;;;;;5014064;28;20212;-65
2023/10/19 03:54:33;;;;;;;9.77;5.70;;;10.40;99.90;;;;;;5014128;28;20723;-64
2023/10/19 03:57:02;;;;;;;11.03;5.90;;;10.40;99.90;;;;;;5014181;28;20227;-64
2023/10/19 03:59:32;;;;;;;11.80;6.53;;;10.40;99.90;;;;;;5014130;28;20275;-64
2023/10/19 04:01:59;;;;;;;13.93;6.77;;;10.40;99.90;;;;;;5013985;28;20225;-64
2023/10/19 04:04:25;;;;;;;12.10;6.73;;;10.40;99.90;;;;;;5013612;28;20747;-64
2023/10/19 04:06:57;;;;;;;11.80;6.73;;;10.40;99.90;;;;;;5013987;28;20188;-64
2023/10/19 04:09:23;;;;;;;14.37;6.60;;;10.40;99.90;;;;;;5013891;28;20274;-64
2023/10/19 04:11:52;;;;;;;11.67;6.67;;;10.40;99.90;;;;;;5013873;28;20183;-64
2023/10/19 04:14:20;;;;;;;15.47;7.37;;;10.40;99.90;;;;;;5013235;28;20278;-65
2023/10/19 04:16:48;;;;;;;14.17;7.50;;;10.40;99.90;;;;;;5014035;28;20544;-64
2023/10/19 04:19:15;;;;;;;12.73;7.10;;;10.40;99.90;;;;;;5013832;28;20227;-64
2023/10/19 04:21:44;;;;;;;16.33;8.30;;;10.40;99.90;;;;;;5013759;28;20230;-64
2023/10/19 04:24:10;;;;;;;14.23;7.53;;;10.40;99.90;;;;;;5013299;28;20215;-64
2023/10/19 04:26:37;;;;;;;14.47;7.20;;;10.40;99.90;;;;;;5012401;28;20204;-64
2023/10/19 04:29:19;;;;;;;15.10;6.67;;;10.30;99.90;;;;;;5013161;28;20294;-64
2023/10/19 04:31:54;;;;;;;11.43;6.67;;;10.30;99.90;;;;;;5013630;28;20480;-64
2023/10/19 04:34:21;;;;;;;13.80;7.07;;;10.30;99.90;;;;;;5013413;28;20196;-64
2023/10/19 04:36:50;;;;;;;13.83;7.53;;;10.40;99.90;;;;;;5013523;28;20187;-64
2023/10/19 04:39:19;;;;;;;12.17;7.17;;;10.40;99.90;;;;;;5013496;28;20177;-64
2023/10/19 04:41:45;;;;;;;14.43;7.20;;;10.30;99.90;;;;;;5013554;28;20180;-65
2023/10/19 04:44:11;;;;;;;18.27;7.23;;;10.20;99.90;;;;;;5013068;28;20200;-65
2023/10/19 04:46:37;;;;;;;14.20;7.47;;;10.30;99.90;;;;;;5013398;28;20180;-65
2023/10/19 04:49:03;;;;;;;17.07;8.10;;;10.30;99.90;;;;;;5013027;28;20552;-64
2023/10/19 04:51:29;;;;;;;14.93;7.57;;;10.30;99.90;;;;;;5013313;28;20185;-66
2023/10/19 04:53:55;;;;;;;17.50;7.50;;;10.30;99.90;;;;;;5012853;28;20230;-65
2023/10/19 04:56:21;;;;;;;19.47;10.33;;;10.40;99.90;;;;;;5013099;28;20185;-66
2023/10/19 04:58:47;;;;;;;17.67;8.67;;;10.40;99.90;;;;;;5012939;28;20192;-62
2023/10/19 05:01:14;;;;;;;16.80;7.70;;;10.30;99.90;;;;;;5013087;28;20216;-63
2023/10/19 05:03:40;;;;;;;16.10;7.33;;;10.30;99.90;;;;;;5012554;28;20774;-63
2023/10/19 05:06:06;;;;;;;16.17;7.70;;;10.30;99.90;;;;;;5012763;28;20219;-63
2023/10/19 05:08:32;;;;;;;14.37;7.20;;;10.40;99.90;;;;;;5019455;28;20207;-63
2023/10/19 05:11:02;;;;;;;13.23;7.30;;;10.40;99.90;;;;;;5014318;28;20203;-66
2023/10/19 05:13:28;;;;;;;20.63;8.87;;;10.40;99.90;;;;;;5012521;28;20306;-67
2023/10/19 05:15:54;;;;;;;16.70;8.27;;;10.40;99.90;;;;;;5012530;28;20542;-65
2023/10/19 05:18:25;;;;;;;20.97;8.57;;;10.40;99.90;;;;;;5012736;28;20242;-66
2023/10/19 05:20:55;;;;;;;18.10;8.53;;;10.40;99.90;;;;;;5012552;28;20688;-66
2023/10/19 05:23:24;;;;;;;24.63;8.33;;;10.30;99.90;;;;;;5012393;28;20176;-67
2023/10/19 05:25:53;;;;;;;21.40;8.70;;;10.40;99.90;;;;;;5012477;28;20201;-67
2023/10/19 05:28:19;;;;;;;17.40;8.00;;;10.30;99.90;;;;;;5012433;28;20207;-66
2023/10/19 05:30:45;;;;;;;15.37;7.40;;;10.40;99.90;;;;;;5012392;28;20653;-67
2023/10/19 05:33:10;;;;;;;16.40;7.57;;;10.40;99.90;;;;;;5012258;28;20268;-66
2023/10/19 05:35:40;;;;;;;16.60;7.43;;;10.40;99.90;;;;;;5012344;28;20645;-66
2023/10/19 05:38:07;;;;;;;13.23;6.70;;;10.50;99.90;;;;;;5020531;28;20200;-67
2023/10/19 05:40:33;;;;;;;15.83;7.17;;;10.50;99.90;;;;;;5012548;28;20184;-66
2023/10/19 05:43:00;;;;;;;16.00;7.17;;;10.50;99.90;;;;;;5011908;28;20188;-66
2023/10/19 05:45:27;;;;;;;15.53;7.50;;;10.50;99.90;;;;;;5012228;28;20209;-66
2023/10/19 05:47:53;;;;;;;13.93;7.30;;;10.50;99.90;;;;;;5012119;28;20270;-64
2023/10/19 05:50:19;;;;;;;13.87;7.33;;;10.50;99.90;;;;;;5012093;28;20682;-66
2023/10/19 05:52:45;;;;;;;16.43;7.57;;;10.60;99.90;;;;;;5011879;28;20213;-65
2023/10/19 05:55:10;;;;;;;14.50;7.70;;;10.60;99.90;;;;;;5020085;28;20282;-65
2023/10/19 05:57:40;;;;;;;17.87;7.10;;;10.60;99.90;;;;;;5010717;28;20709;-64
2023/10/19 06:00:07;;;;;;;15.80;6.67;;;10.60;99.90;;;;;;5011400;28;20248;-64
2023/10/19 06:02:33;;;;;;;18.77;6.97;;;10.60;99.90;;;;;;5011865;28;20179;-65
2023/10/19 06:05:00;;;;;;;13.73;7.00;;;10.60;99.90;;;;;;5027826;28;20204;-64
2023/10/19 06:07:26;;;;;;;13.17;7.00;;;10.60;99.90;;;;;;5011851;28;20586;-65
2023/10/19 06:09:52;;;;;;;12.90;6.57;;;10.60;99.90;;;;;;5011495;28;20216;-65
2023/10/19 06:12:18;;;;;;;14.47;6.43;;;10.60;99.90;;;;;;5011766;28;20188;-65
2023/10/19 06:14:44;;;;;;;14.87;6.70;;;10.60;99.90;;;;;;5011416;28;20701;-65
2023/10/19 06:17:09;;;;;;;16.37;7.10;;;10.70;99.90;;;;;;5011709;28;20249;-65
2023/10/19 06:19:35;;;;;;;14.57;6.83;;;10.70;99.90;;;;;;5012143;28;20195;-65
2023/10/19 06:22:02;;;;;;;17.37;7.30;;;10.70;99.90;;;;;;5011348;28;20200;-65
2023/10/19 06:24:28;;;;;;;12.43;6.77;;;10.80;99.90;;;;;;5019296;28;20200;-65
2023/10/19 06:26:53;;;;;;;12.93;6.63;;;10.70;99.90;;;;;;5011300;28;20192;-66
2023/10/19 06:29:19;;;;;;;12.47;6.43;;;10.70;99.90;;;;;;5011189;28;20212;-66
2023/10/19 06:31:44;;;;;;;13.73;6.40;;;10.80;99.90;;;;;;5010440;28;20184;-65
2023/10/19 06:34:10;;;;;;;18.00;8.10;;;10.80;99.90;;;;;;5009863;28;20657;-65
2023/10/19 06:36:36;;;;;;;19.93;7.70;;;10.80;99.90;;;;;;5010361;28;20243;-65
2023/10/19 06:39:05;;;;;;;21.23;8.53;;;10.80;99.90;;;;;;5010291;28;20188;-65
2023/10/19 06:41:32;;;;;;;17.27;8.00;;;10.80;99.90;;;;;;5010549;28;20193;-66
2023/10/19 06:43:58;;;;;;;22.37;8.87;;;10.80;99.90;;;;;;5009908;28;20287;-65
2023/10/19 06:46:24;;;;;;;20.73;8.00;;;10.80;99.90;;;;;;5010360;28;20679;-65
2023/10/19 06:48:51;;;;;;;21.87;8.27;;;10.90;99.90;;;;;;5010078;28;20208;-65
2023/10/19 06:51:16;;;;;;;19.57;8.57;;;10.90;99.90;;;;;;5010240;28;20199;-65
2023/10/19 06:53:42;;;;;;;24.83;10.07;;;10.90;99.90;;;;;;5009985;28;20231;-65
2023/10/19 06:56:07;;;;;;;24.90;9.70;;;10.90;99.90;;;;;;5010026;28;20172;-65
2023/10/19 06:58:34;;;;;;;28.17;10.83;;;10.90;99.90;;;;;;5010096;28;20184;-65
2023/10/19 07:01:05;;;;;;;30.43;10.70;;;11.00;99.90;;;;;;5009822;28;20215;-65
2023/10/19 07:03:30;;;;;;;24.50;9.07;;;11.00;99.90;;;;;;5010015;28;20208;-65
2023/10/19 07:05:58;;;;;;;25.37;8.50;;;11.00;99.90;;;;;;5009653;28;20659;-65
2023/10/19 07:08:23;;;;;;;23.53;8.47;;;11.00;99.90;;;;;;5009780;28;20267;-65
2023/10/19 07:10:52;;;;;;;29.77;8.83;;;11.10;99.90;;;;;;5009801;28;20185;-65
2023/10/19 07:13:18;;;;;;;22.73;7.53;;;11.10;99.90;;;;;;5008764;28;20180;-66
2023/10/19 07:15:48;;;;;;;28.53;7.77;;;11.00;99.90;;;;;;5009787;28;20207;-65
2023/10/19 07:18:14;;;;;;;25.13;8.10;;;11.10;99.90;;;;;;5002257;28;20181;-65
2023/10/19 07:20:42;;;;;;;21.07;7.67;;;11.10;99.90;;;;;;5009976;28;20194;-66
2023/10/19 07:23:26;;;;;;;23.27;8.30;;;11.10;99.90;;;;;;5009553;28;20283;-65
2023/10/19 07:25:54;;;;;;;28.00;9.13;;;11.20;99.90;;;;;;5009863;28;20677;-65
2023/10/19 07:28:21;;;;;;;27.27;9.93;;;11.20;99.90;;;;;;5009945;28;20568;-64
2023/10/19 07:30:47;;;;;;;30.63;9.97;;;11.10;99.90;;;;;;5001277;28;20196;-64
2023/10/19 07:33:17;;;;;;;21.87;8.07;;;11.10;99.90;;;;;;5003858;28;20262;-65
2023/10/19 07:35:43;;;;;;;30.30;10.50;;;11.20;99.90;;;;;;5003668;28;20169;-65
2023/10/19 07:38:10;;;;;;;26.33;9.13;;;11.20;99.90;;;;;;5003424;28;20192;-65
2023/10/19 07:40:36;;;;;;;29.03;9.63;;;11.20;99.90;;;;;;5003572;28;20223;-65
2023/10/19 07:43:03;;;;;;;28.17;9.20;;;11.20;99.90;;;;;;5002867;28;20273;-66
2023/10/19 07:45:31;;;;;;;32.70;9.37;;;11.30;99.90;;;;;;5002545;28;20219;-66
2023/10/19 07:47:56;;;;;;;37.37;9.67;;;11.30;99.90;;;;;;5004052;28;20235;-66
2023/10/19 07:50:22;;;;;;;26.00;8.73;;;11.30;99.90;;;;;;5003953;28;20272;-66
2023/10/19 07:52:51;;;;;;;27.23;9.27;;;11.30;99.90;;;;;;5002639;28;20245;-65
2023/10/19 07:55:18;;;;;;;30.77;10.20;;;11.40;99.90;;;;;;5003593;28;20785;-66
2023/10/19 07:57:44;;;;;;;25.13;8.77;;;11.50;99.90;;;;;;5003925;28;20184;-66
2023/10/19 08:00:13;;;;;;;30.13;9.37;;;11.50;99.90;;;;;;5003221;28;20192;-65
2023/10/19 08:02:41;;;;;;;25.93;9.13;;;11.50;99.90;;;;;;5003374;28;20185;-65
2023/10/19 08:05:07;;;;;;;23.97;9.60;;;11.50;99.90;;;;;;5003825;28;20189;-65
2023/10/19 08:07:36;;;;;;;24.90;8.83;;;11.60;99.90;;;;;;5006241;28;20655;-65
2023/10/19 08:10:05;;;;;;;27.30;9.13;;;11.60;99.90;;;;;;5009223;28;20192;-65
2023/10/19 08:12:32;;;;;;;27.07;10.67;;;11.70;99.90;;;;;;5007719;28;20779;-65
2023/10/19 08:14:59;;;;;;;34.00;15.40;;;11.60;99.90;;;;;;5007882;28;20228;-66
2023/10/19 08:17:24;;;;;;;25.50;11.60;;;11.70;99.90;;;;;;5009468;28;20189;-65
2023/10/19 08:19:50;;;;;;;30.23;9.43;;;11.70;99.90;;;;;;5009082;28;20180;-65
2023/10/19 08:22:16;;;;;;;27.60;10.00;;;11.60;99.90;;;;;;5009114;28;20208;-65
2023/10/19 08:24:45;;;;;;;30.83;9.53;;;11.80;99.90;;;;;;5011525;28;20239;-65
2023/10/19 08:27:12;;;;;;;30.83;10.43;;;11.90;99.90;;;;;;5004975;28;20188;-65
2023/10/19 08:29:38;;;;;;;30.57;11.70;;;12.00;99.90;;;;;;5008008;28;20231;-65
2023/10/19 08:32:04;;;;;;;28.27;10.00;;;12.00;99.90;;;;;;5008150;28;20197;-65
2023/10/19 08:34:35;;;;;;;29.00;9.27;;;12.10;99.90;;;;;;5008516;28;20208;-65
2023/10/19 08:37:02;;;;;;;70.70;41.73;;;12.20;99.90;;;;;;5012459;28;20207;-65
2023/10/19 08:39:28;;;;;;;33.97;12.03;;;12.20;99.90;;;;;;5012307;28;20591;-65
2023/10/19 08:41:55;;;;;;;32.37;10.53;;;12.30;99.90;;;;;;5012642;28;20223;-65
2023/10/19 08:44:21;;;;;;;32.57;10.40;;;12.50;99.90;;;;;;5012221;28;20200;-66
2023/10/19 08:46:51;;;;;;;29.63;11.97;;;12.60;99.90;;;;;;5012458;28;20533;-66
2023/10/19 08:49:19;;;;;;;27.70;9.73;;;12.60;99.90;;;;;;5012244;28;20212;-65
2023/10/19 08:51:46;;;;;;;30.27;11.37;;;12.70;99.90;;;;;;5010970;28;20215;-66
2023/10/19 08:54:13;;;;;;;30.33;10.53;;;12.90;99.90;;;;;;5003783;28;20395;-65
2023/10/19 08:56:42;;;;;;;28.37;9.90;;;13.10;99.90;;;;;;5012527;28;20211;-66
2023/10/19 08:59:10;;;;;;;27.93;9.87;;;13.30;99.90;;;;;;5012235;28;20280;-66
2023/10/19 09:01:37;;;;;;;33.50;11.47;;;13.50;99.90;;;;;;5012139;28;20191;-66
2023/10/19 09:04:05;;;;;;;27.07;10.07;;;13.60;99.90;;;;;;5019902;28;20229;-66
2023/10/19 09:06:41;;;;;;;25.93;10.23;;;13.70;99.90;;;;;;5012090;28;20669;-65
2023/10/19 09:09:16;;;;;;;24.20;9.10;;;13.70;99.90;;;;;;5012096;28;20677;-66
2023/10/19 09:11:46;;;;;;;25.23;9.87;;;13.90;99.90;;;;;;5012163;28;20886;-65
2023/10/19 09:14:12;;;;;;;25.93;9.27;;;14.00;99.90;;;;;;5011595;28;20631;-66
2023/10/19 09:16:52;;;;;;;23.53;8.80;;;14.10;99.90;;;;;;5011895;28;20179;-66
2023/10/19 09:19:19;;;;;;;22.13;9.20;;;14.20;99.90;;;;;;5004883;28;20183;-66
2023/10/19 09:21:46;;;;;;;28.23;10.87;;;14.40;99.90;;;;;;5011961;28;20180;-66
2023/10/19 09:24:12;;;;;;;21.17;9.43;;;14.50;99.90;;;;;;5003403;28;20196;-67
2023/10/19 09:26:37;;;;;;;20.70;9.77;;;14.60;99.90;;;;;;5011660;28;20535;-66
2023/10/19 09:29:03;;;;;;;19.00;8.47;;;14.70;99.90;;;;;;5019602;28;20286;-66
2023/10/19 09:31:30;;;;;;;21.03;8.60;;;14.70;99.90;;;;;;5011782;28;20226;-65
2023/10/19 09:33:57;;;;;;;21.60;9.17;;;14.70;99.90;;;;;;5010807;28;20207;-66
2023/10/19 09:36:27;;;;;;;22.70;8.40;;;14.60;99.90;;;;;;5010863;28;20368;-66
2023/10/19 09:38:52;;;;;;;22.87;9.47;;;14.70;99.90;;;;;;5011509;28;20189;-65
2023/10/19 09:41:20;;;;;;;22.30;9.77;;;14.50;99.90;;;;;;5010701;28;20231;-65
2023/10/19 09:43:51;;;;;;;21.23;9.77;;;14.50;99.90;;;;;;5011071;28;20508;-65
2023/10/19 09:46:29;;;;;;;22.30;9.53;;;14.50;99.90;;;;;;5011589;28;20253;-65
2023/10/19 09:48:56;;;;;;;19.27;9.00;;;14.70;99.90;;;;;;5011243;28;20222;-65
2023/10/19 09:51:23;;;;;;;23.47;10.53;;;14.90;99.90;;;;;;5011253;28;20184;-66
2023/10/19 09:53:57;;;;;;;21.53;9.40;;;15.00;99.90;;;;;;5010438;28;20212;-65
2023/10/19 09:56:30;;;;;;;20.57;9.27;;;15.10;99.90;;;;;;5018809;28;20192;-66
2023/10/19 09:59:00;;;;;;;18.33;9.30;;;15.30;99.90;;;;;;5009928;28;20192;-66
2023/10/19 10:01:26;;;;;;;20.50;8.83;;;15.50;99.90;;;;;;5011377;28;20181;-66
2023/10/19 10:03:53;;;;;;;17.20;8.73;;;15.70;99.90;;;;;;5018841;28;20577;-65
2023/10/19 10:06:51;;;;;;;19.30;9.23;;;15.80;99.90;;;;;;5019088;28;20184;-66
2023/10/19 10:09:23;;;;;;;17.43;8.90;;;16.00;99.90;;;;;;5003282;28;20200;-66
2023/10/19 10:11:52;;;;;;;18.67;8.63;;;16.20;99.90;;;;;;5010840;28;20184;-66
2023/10/19 10:14:25;;;;;;;16.40;8.43;;;16.70;99.90;;;;;;5010299;28;20212;-66
2023/10/19 10:17:05;;;;;;;14.33;8.13;;;17.20;99.90;;;;;;5010736;28;20293;-66
2023/10/19 10:19:30;;;;;;;17.37;8.80;;;17.50;99.90;;;;;;5011099;28;20211;-66
2023/10/19 10:22:14;;;;;;;14.37;7.60;;;17.70;99.90;;;;;;5010581;28;20651;-66
2023/10/19 10:24:43;;;;;;;17.00;8.37;;;17.60;99.90;;;;;;5009134;28;20331;-66
2023/10/19 10:27:10;;;;;;;13.60;7.50;;;17.70;99.90;;;;;;5010329;28;20180;-66
2023/10/19 10:29:36;;;;;;;16.17;7.47;;;17.90;99.90;;;;;;5010672;28;20219;-66
2023/10/19 10:32:05;;;;;;;18.13;8.70;;;18.00;99.90;;;;;;5009661;28;20177;-66
2023/10/19 10:34:33;;;;;;;12.63;6.63;;;17.80;99.90;;;;;;5008731;28;20203;-66
2023/10/19 10:37:02;;;;;;;13.13;7.20;;;18.20;99.90;;;;;;5010327;28;20526;-66
2023/10/19 10:39:30;;;;;;;11.17;6.13;;;18.20;99.90;;;;;;5010314;28;20573;-67
2023/10/19 10:41:59;;;;;;;10.33;6.13;;;18.40;99.90;;;;;;5010190;28;20184;-66
2023/10/19 10:44:45;;;;;;;14.73;6.00;;;18.30;99.90;;;;;;5010239;28;20258;-64
2023/10/19 10:47:21;;;;;;;7.70;5.10;;;18.30;99.90;;;;;;5009964;28;20182;-63
2023/10/19 10:49:52;;;;;;;9.47;5.47;;;18.30;99.90;;;;;;5010620;28;20208;-64
2023/10/19 10:52:34;;;;;;;11.00;5.23;;;18.10;99.90;;;;;;5010192;28;20172;-65
2023/10/19 10:55:20;;;;;;;9.27;5.47;;;17.70;99.90;;;;;;5009997;28;20634;-66
2023/10/19 10:57:45;;;;;;;9.90;4.80;;;17.50;99.90;;;;;;5010184;28;20191;-65
2023/10/19 11:00:16;;;;;;;13.13;7.00;;;17.40;99.90;;;;;;5009896;28;20180;-65
2023/10/19 11:02:43;;;;;;;10.70;5.60;;;17.10;99.90;;;;;;5010228;28;20263;-66
2023/10/19 11:05:15;;;;;;;10.93;5.67;;;17.00;99.90;;;;;;5009596;28;20212;-66
2023/10/19 11:08:15;;;;;;;11.20;5.40;;;17.00;99.90;;;;;;5010072;28;20183;-67
2023/10/19 11:10:42;;;;;;;10.20;5.60;;;17.00;99.90;;;;;;5002504;28;20199;-66
2023/10/19 11:13:13;;;;;;;14.33;5.80;;;17.20;99.90;;;;;;5009007;28;20189;-65
2023/10/19 11:15:47;;;;;;;8.83;5.70;;;17.30;99.90;;;;;;5009820;28;20227;-66
2023/10/19 11:18:35;;;;;;;14.60;6.27;;;17.40;99.90;;;;;;5009244;28;20187;-66
2023/10/19 11:21:05;;;;;;;10.77;6.23;;;17.60;99.90;;;;;;5009636;28;20173;-65
2023/10/19 11:23:45;;;;;;;11.50;6.00;;;17.70;99.90;;;;;;5009296;28;20746;-65
2023/10/19 11:26:12;;;;;;;14.93;5.50;;;17.80;99.90;;;;;;5009608;28;20187;-66
2023/10/19 11:28:44;;;;;;;9.57;5.40;;;17.70;99.90;;;;;;5008213;28;20211;-66
2023/10/19 11:31:13;;;;;;;10.60;5.27;;;17.70;99.90;;;;;;5009491;28;20569;-66
2023/10/19 11:33:41;;;;;;;7.70;5.43;;;17.60;99.90;;;;;;5009214;28;20200;-66
2023/10/19 11:36:07;;;;;;;15.70;5.83;;;17.60;99.90;;;;;;5009331;28;20197;-66
2023/10/19 11:38:32;;;;;;;9.60;5.07;;;17.40;99.90;;;;;;5003641;28;20263;-67
2023/10/19 11:40:58;;;;;;;14.17;5.47;;;17.30;99.90;;;;;;5004750;28;20200;-68
2023/10/19 11:43:23;;;;;;;13.33;5.50;;;17.10;99.90;;;;;;5003615;28;20184;-66
2023/10/19 11:45:49;;;;;;;10.93;5.07;;;17.10;99.90;;;;;;5004310;28;20371;-69
2023/10/19 11:48:15;;;;;;;11.93;4.87;;;17.20;99.90;;;;;;5003150;28;20285;-67
2023/10/19 11:50:41;;;;;;;8.80;5.50;;;17.30;99.90;;;;;;5003830;28;20181;-66
2023/10/19 11:53:09;;;;;;;14.23;5.17;;;17.40;99.90;;;;;;5007832;28;20184;-66
2023/10/19 11:55:35;;;;;;;10.53;5.20;;;17.40;99.90;;;;;;5009439;28;20173;-67
2023/10/19 11:58:01;;;;;;;22.60;10.50;;;17.40;99.90;;;;;;5009258;28;20523;-66
2023/10/19 12:00:33;;;;;;;14.80;6.77;;;17.30;99.90;;;;;;5013317;28;20552;-67
2023/10/19 12:02:59;;;;;;;14.77;5.50;;;17.40;99.90;;;;;;5012862;28;20356;-66
2023/10/19 12:05:25;;;;;;;8.40;4.87;;;17.50;99.90;;;;;;5009646;28;20208;-67
2023/10/19 12:07:51;;;;;;;11.40;5.17;;;17.50;99.90;;;;;;5013148;28;20547;-68
2023/10/19 12:10:20;;;;;;;10.20;4.53;;;17.70;99.90;;;;;;5012976;28;20177;-67
2023/10/19 12:12:46;;;;;;;10.83;4.20;;;17.80;99.90;;;;;;5012652;28;20676;-68
2023/10/19 12:15:12;;;;;;;11.93;4.80;;;17.70;99.90;;;;;;5012504;28;20235;-68
2023/10/19 12:17:38;;;;;;;22.73;10.90;;;17.80;99.90;;;;;;5012916;28;20672;-67
2023/10/19 12:20:06;;;;;;;16.17;5.33;;;17.70;99.90;;;;;;5012827;28;20272;-67
2023/10/19 12:22:36;;;;;;;16.73;6.67;;;17.80;99.90;;;;;;5008380;28;20197;-66
2023/10/19 12:25:02;;;;;;;10.10;5.03;;;17.70;99.90;;;;;;5010828;28;20248;-69
2023/10/19 12:27:28;;;;;;;10.17;4.20;;;17.60;99.90;;;;;;5012817;28;20275;-66
2023/10/19 12:29:54;;;;;;;12.03;4.13;;;17.70;99.90;;;;;;5012487;28;20756;-67
2023/10/19 12:32:21;;;;;;;13.60;6.90;;;17.70;99.90;;;;;;5012561;28;20199;-67
2023/10/19 12:34:50;;;;;;;11.33;5.07;;;17.80;99.90;;;;;;5012703;28;20204;-67
2023/10/19 12:37:17;;;;;;;6.33;3.90;;;18.00;99.90;;;;;;5004692;28;20185;-65
2023/10/19 12:39:45;;;;;;;8.30;4.13;;;17.90;99.90;;;;;;5012622;28;20188;-64
2023/10/19 12:42:10;;;;;;;10.53;3.80;;;18.00;99.90;;;;;;5012434;28;20211;-65
2023/10/19 12:44:40;;;;;;;9.67;3.63;;;18.10;99.90;;;;;;5012070;28;20343;-66
2023/10/19 12:47:12;;;;;;;6.00;3.23;;;18.10;99.90;;;;;;5012574;28;20188;-66
2023/10/19 12:49:39;;;;;;;10.80;3.93;;;18.10;99.90;;;;;;5012692;28;20297;-66
2023/10/19 12:52:07;;;;;;;7.07;4.10;;;18.00;99.90;;;;;;5012803;28;20215;-65
2023/10/19 12:54:35;;;;;;;9.03;3.30;;;17.90;99.90;;;;;;5012054;28;20560;-65
2023/10/19 12:57:03;;;;;;;8.32;4.28;;;17.80;99.90;;;;;;5011271;28;20411;-65
2023/10/19 12:59:32;;;;;;;8.90;3.87;;;17.60;99.90;;;;;;5012410;28;20195;-65
2023/10/19 13:01:58;;;;;;;9.35;4.30;;;17.60;99.90;;;;;;5011735;28;20995;-65
2023/10/19 13:04:30;;;;;;;9.67;4.73;;;17.60;99.90;;;;;;5012121;28;20291;-65
2023/10/19 13:06:57;;;;;;;9.90;4.27;;;17.40;99.90;;;;;;5012145;28;20197;-65
2023/10/19 13:09:33;;;;;;;10.67;4.80;;;17.50;99.90;;;;;;5016089;28;20195;-66
2023/10/19 13:12:01;;;;;;;10.13;4.73;;;17.60;99.90;;;;;;5014778;28;20263;-65